Time;durP1;ratioP1;P1;durP2;ratioP2;P2;SDS_P1;SDS_P2;PMS_P1;PMS_P2;Temp;Humidity;BMP_temperature;BMP_pressure;BME280_temperature;BME280_humidity;BME280_pressure;Samples;Min_cycle;Max_cycle;Signal;HPM_P1;HPM_P2
2023/08/18 00:00:21;;;;;;;0.00;0.00;;;;;;;;;;7388275;19;20148;-68
2023/08/18 00:02:50;;;;;;;0.00;0.00;;;;;;;;;;7386214;19;20144;-68
2023/08/18 00:05:19;;;;;;;0.00;0.00;;;;;;;;;;7386906;19;20152;-68
2023/08/18 00:07:51;;;;;;;0.00;0.00;;;;;;;;;;7387469;19;20145;-68
2023/08/18 00:10:19;;;;;;;0.00;0.00;;;;;;;;;;7387581;19;20141;-68
2023/08/18 00:12:48;;;;;;;0.00;0.00;;;;;;;;;;7389294;19;20462;-68
2023/08/18 00:15:17;;;;;;;0.00;0.00;;;;;;;;;;7386729;19;20160;-68
2023/08/18 00:17:46;;;;;;;0.00;0.00;;;;;;;;;;7386006;19;20191;-68
2023/08/18 00:20:15;;;;;;;0.00;0.00;;;;;;;;;;7386088;19;20152;-68
2023/08/18 00:22:44;;;;;;;0.00;0.00;;;;;;;;;;7386351;19;20148;-68
2023/08/18 00:25:16;;;;;;;0.00;0.00;;;;;;;;;;7387015;19;20164;-69
2023/08/18 00:27:45;;;;;;;0.00;0.00;;;;;;;;;;7384928;19;20175;-68
2023/08/18 00:30:14;;;;;;;0.00;0.00;;;;;;;;;;7380787;19;20145;-68
2023/08/18 00:32:45;;;;;;;0.00;0.00;;;;;;;;;;7384623;19;20156;-68
2023/08/18 00:35:14;;;;;;;0.00;0.00;;;;;;;;;;7386309;19;20493;-68
2023/08/18 00:37:43;;;;;;;0.00;0.00;;;;;;;;;;7387537;19;20480;-68
2023/08/18 00:40:16;;;;;;;0.00;0.00;;;;;;;;;;7387372;19;20156;-68
2023/08/18 00:42:45;;;;;;;0.00;0.00;;;;;;;;;;7385806;19;20175;-68
2023/08/18 00:45:15;;;;;;;0.00;0.00;;;;;;;;;;7387077;19;20159;-68
2023/08/18 00:47:45;;;;;;;0.00;0.00;;;;;;;;;;7391219;19;20175;-69
2023/08/18 00:50:15;;;;;;;0.00;0.00;;;;;;;;;;7391522;19;20153;-68
2023/08/18 00:52:46;;;;;;;0.00;0.00;;;;;;;;;;7392006;19;20172;-68
2023/08/18 00:55:17;;;;;;;0.00;0.00;;;;;;;;;;7392535;19;20164;-68
2023/08/18 00:57:46;;;;;;;0.00;0.00;;;;;;;;;;7393786;19;20133;-69
2023/08/18 01:00:15;;;;;;;0.00;0.00;;;;;;;;;;7391628;19;20182;-68
2023/08/18 01:02:44;;;;;;;0.00;0.00;;;;;;;;;;7393502;19;20136;-69
2023/08/18 01:05:13;;;;;;;0.00;0.00;;;;;;;;;;7393943;19;20137;-67
2023/08/18 01:07:42;;;;;;;0.00;0.00;;;;;;;;;;7391210;19;20157;-68
2023/08/18 01:10:12;;;;;;;0.00;0.00;;;;;;;;;;7393565;19;20153;-68
2023/08/18 01:12:49;;;;;;;0.00;0.00;;;;;;;;;;7390899;19;20164;-69
2023/08/18 01:15:20;;;;;;;0.00;0.00;;;;;;;;;;7391433;19;20152;-68
2023/08/18 01:17:51;;;;;;;0.00;0.00;;;;;;;;;;7392184;19;20148;-68
2023/08/18 01:20:20;;;;;;;0.00;0.00;;;;;;;;;;7389782;19;20153;-68
2023/08/18 01:22:56;;;;;;;0.00;0.00;;;;;;;;;;7390529;19;20148;-67
2023/08/18 01:25:25;;;;;;;0.00;0.00;;;;;;;;;;7393207;19;20598;-68
2023/08/18 01:27:54;;;;;;;0.00;0.00;;;;;;;;;;7389124;19;20148;-68
2023/08/18 01:30:24;;;;;;;0.00;0.00;;;;;;;;;;7388654;19;20181;-67
2023/08/18 01:32:56;;;;;;;0.00;0.00;;;;;;;;;;7391482;19;20129;-69
2023/08/18 01:35:28;;;;;;;0.00;0.00;;;;;;;;;;7390684;19;20151;-67
2023/08/18 01:38:01;;;;;;;0.00;0.00;;;;;;;;;;7389683;19;20171;-68
2023/08/18 01:40:31;;;;;;;0.00;0.00;;;;;;;;;;7390263;19;20186;-69
2023/08/18 01:43:01;;;;;;;0.00;0.00;;;;;;;;;;7390100;19;20145;-67
2023/08/18 01:45:30;;;;;;;0.00;0.00;;;;;;;;;;7390104;19;20152;-69
2023/08/18 01:47:59;;;;;;;0.00;0.00;;;;;;;;;;7389121;19;20157;-68
2023/08/18 01:50:28;;;;;;;0.00;0.00;;;;;;;;;;7391696;19;20141;-69
2023/08/18 01:53:01;;;;;;;0.00;0.00;;;;;;;;;;7391558;19;20137;-68
2023/08/18 01:55:30;;;;;;;0.00;0.00;;;;;;;;;;7390753;19;20148;-68
2023/08/18 01:57:59;;;;;;;0.00;0.00;;;;;;;;;;7387997;19;20168;-68
2023/08/18 02:00:28;;;;;;;0.00;0.00;;;;;;;;;;7388600;19;20188;-69
2023/08/18 02:02:57;;;;;;;0.00;0.00;;;;;;;;;;7389424;19;20165;-69
2023/08/18 02:05:25;;;;;;;0.00;0.00;;;;;;;;;;7389885;19;20178;-68
2023/08/18 02:07:54;;;;;;;0.00;0.00;;;;;;;;;;7390428;19;20164;-68
2023/08/18 02:10:26;;;;;;;0.00;0.00;;;;;;;;;;7388423;19;20176;-67
2023/08/18 02:12:55;;;;;;;0.00;0.00;;;;;;;;;;7389474;19;20148;-67
2023/08/18 02:15:24;;;;;;;0.00;0.00;;;;;;;;;;7389889;19;20153;-68
2023/08/18 02:17:53;;;;;;;0.00;0.00;;;;;;;;;;7389545;19;20144;-67
2023/08/18 02:20:22;;;;;;;0.00;0.00;;;;;;;;;;7389492;19;20188;-68
2023/08/18 02:22:51;;;;;;;0.00;0.00;;;;;;;;;;7384832;19;20159;-68
2023/08/18 02:25:21;;;;;;;0.00;0.00;;;;;;;;;;7387982;19;20274;-68
2023/08/18 02:27:53;;;;;;;0.00;0.00;;;;;;;;;;7387261;19;20185;-69
2023/08/18 02:30:22;;;;;;;0.00;0.00;;;;;;;;;;7387423;19;20180;-68
2023/08/18 02:32:51;;;;;;;0.00;0.00;;;;;;;;;;7390960;19;20129;-68
2023/08/18 02:35:20;;;;;;;0.00;0.00;;;;;;;;;;7390477;19;20137;-68
2023/08/18 02:37:49;;;;;;;0.00;0.00;;;;;;;;;;7389476;19;20314;-68
2023/08/18 02:40:19;;;;;;;0.00;0.00;;;;;;;;;;7389389;19;20163;-68
2023/08/18 02:42:48;;;;;;;0.00;0.00;;;;;;;;;;7386990;19;20168;-67
2023/08/18 02:45:20;;;;;;;0.00;0.00;;;;;;;;;;7388007;19;20149;-68
2023/08/18 02:47:49;;;;;;;0.00;0.00;;;;;;;;;;7388614;19;20145;-67
2023/08/18 02:50:18;;;;;;;0.00;0.00;;;;;;;;;;7387889;19;20198;-68
2023/08/18 02:52:47;;;;;;;0.00;0.00;;;;;;;;;;7390034;19;20136;-68
2023/08/18 02:55:16;;;;;;;0.00;0.00;;;;;;;;;;7391035;19;20143;-68
2023/08/18 02:57:46;;;;;;;0.00;0.00;;;;;;;;;;7389123;19;20220;-68
2023/08/18 03:00:16;;;;;;;0.00;0.00;;;;;;;;;;7388768;19;20137;-68
2023/08/18 03:02:49;;;;;;;0.00;0.00;;;;;;;;;;7389818;19;20133;-67
2023/08/18 03:05:20;;;;;;;0.00;0.00;;;;;;;;;;7388219;19;20148;-68
2023/08/18 03:07:49;;;;;;;0.00;0.00;;;;;;;;;;7387200;19;20157;-68
2023/08/18 03:10:18;;;;;;;0.00;0.00;;;;;;;;;;7386873;19;20498;-69
2023/08/18 03:12:46;;;;;;;0.00;0.00;;;;;;;;;;7388349;19;20148;-68
2023/08/18 03:15:16;;;;;;;0.00;0.00;;;;;;;;;;7390490;19;20140;-69
2023/08/18 03:17:49;;;;;;;0.00;0.00;;;;;;;;;;7389876;19;20136;-68
2023/08/18 03:20:19;;;;;;;0.00;0.00;;;;;;;;;;7387292;19;20163;-68
2023/08/18 03:22:48;;;;;;;0.00;0.00;;;;;;;;;;7386863;19;20161;-69
2023/08/18 03:25:17;;;;;;;0.00;0.00;;;;;;;;;;7388235;19;20141;-67
2023/08/18 03:27:47;;;;;;;0.00;0.00;;;;;;;;;;7386075;19;20149;-68
2023/08/18 03:30:16;;;;;;;0.00;0.00;;;;;;;;;;7388329;19;20675;-69
2023/08/18 03:32:50;;;;;;;0.00;0.00;;;;;;;;;;7385659;19;20529;-68
2023/08/18 03:35:19;;;;;;;0.00;0.00;;;;;;;;;;7387047;19;20211;-68
2023/08/18 03:37:48;;;;;;;0.00;0.00;;;;;;;;;;7387561;19;20157;-68
2023/08/18 03:40:17;;;;;;;0.00;0.00;;;;;;;;;;7387410;19;20149;-69
2023/08/18 03:42:46;;;;;;;0.00;0.00;;;;;;;;;;7386401;19;20156;-68
2023/08/18 03:45:14;;;;;;;0.00;0.00;;;17.80;99.90;;;;;;7389032;19;20141;-68
2023/08/18 03:47:43;;;;;;;0.00;0.00;;;17.90;99.90;;;;;;7386920;19;20219;-67
2023/08/18 03:50:15;;;;;;;0.00;0.00;;;17.90;99.90;;;;;;7385693;19;20163;-67
2023/08/18 03:52:44;;;;;;;0.00;0.00;;;17.90;99.90;;;;;;7386528;19;20179;-67
2023/08/18 03:55:13;;;;;;;0.00;0.00;;;17.90;99.90;;;;;;7386063;19;20145;-68
2023/08/18 03:57:42;;;;;;;0.00;0.00;;;17.90;99.90;;;;;;7387246;19;20148;-68
2023/08/18 04:00:12;;;;;;;0.00;0.00;;;17.90;99.90;;;;;;7386986;19;20224;-67
2023/08/18 04:02:43;;;;;;;0.00;0.00;;;17.90;99.90;;;;;;7389607;19;20260;-68
2023/08/18 04:05:19;;;;;;;0.00;0.00;;;17.90;99.90;;;;;;7386202;19;20149;-68
2023/08/18 04:07:48;;;;;;;0.00;0.00;;;17.90;99.90;;;;;;7386039;19;20155;-68
2023/08/18 04:10:16;;;;;;;0.00;0.00;;;17.90;99.90;;;;;;7386661;19;20148;-68
2023/08/18 04:12:45;;;;;;;0.00;0.00;;;17.90;99.90;;;;;;7386281;19;20156;-68
2023/08/18 04:15:14;;;;;;;0.00;0.00;;;17.90;99.90;;;;;;7386846;19;20187;-68
2023/08/18 04:17:42;;;;;;;0.00;0.00;;;17.80;99.90;;;;;;7388782;19;20141;-68
2023/08/18 04:20:12;;;;;;;0.00;0.00;;;17.80;99.90;;;;;;7387255;19;20638;-67
2023/08/18 04:22:43;;;;;;;0.00;0.00;;;17.90;99.90;;;;;;7393948;19;20156;-68
2023/08/18 04:25:14;;;;;;;0.00;0.00;;;17.90;99.90;;;;;;7395028;19;20154;-68
2023/08/18 04:27:44;;;;;;;0.00;0.00;;;18.00;99.90;;;;;;7392798;19;20153;-68
2023/08/18 04:30:14;;;;;;;0.00;0.00;;;18.00;99.90;;;;;;7390459;19;20169;-68
2023/08/18 04:32:43;;;;;;;0.00;0.00;;;18.00;99.90;;;;;;7393312;19;20144;-68
2023/08/18 04:35:14;;;;;;;0.00;0.00;;;18.00;99.90;;;;;;7392299;19;20148;-68
2023/08/18 04:37:45;;;;;;;0.00;0.00;;;18.10;99.90;;;;;;7390600;19;20160;-68
2023/08/18 04:40:14;;;;;;;0.00;0.00;;;18.10;99.90;;;;;;7393202;19;20168;-68
2023/08/18 04:42:43;;;;;;;0.00;0.00;;;18.10;99.90;;;;;;7394217;19;20160;-68
2023/08/18 04:45:13;;;;;;;0.00;0.00;;;18.10;99.90;;;;;;7392112;19;20149;-68
2023/08/18 04:47:41;;;;;;;0.00;0.00;;;18.20;99.90;;;;;;7395259;19;20129;-68
2023/08/18 04:50:11;;;;;;;0.00;0.00;;;18.20;99.90;;;;;;7391705;19;20160;-68
2023/08/18 04:52:40;;;;;;;0.00;0.00;;;18.30;99.90;;;;;;7393855;19;20152;-68
2023/08/18 04:55:11;;;;;;;0.00;0.00;;;18.30;99.90;;;;;;7392400;19;20149;-68
2023/08/18 04:57:40;;;;;;;0.00;0.00;;;18.40;99.90;;;;;;7393363;19;20183;-68
2023/08/18 05:00:11;;;;;;;0.00;0.00;;;18.40;99.90;;;;;;7391232;19;20145;-67
2023/08/18 05:02:39;;;;;;;0.00;0.00;;;18.50;99.90;;;;;;7392768;19;20152;-67
2023/08/18 05:05:09;;;;;;;0.00;0.00;;;18.60;99.90;;;;;;7393365;19;20212;-68
2023/08/18 05:07:38;;;;;;;0.00;0.00;;;18.70;99.90;;;;;;7395411;19;20144;-68
2023/08/18 05:10:08;;;;;;;0.00;0.00;;;18.90;99.90;;;;;;7388113;19;20201;-68
2023/08/18 05:12:39;;;;;;;0.00;0.00;;;18.90;99.90;;;;;;7391380;19;20180;-68
2023/08/18 05:15:08;;;;;;;0.00;0.00;;;19.10;99.90;;;;;;7392578;19;20183;-68
2023/08/18 05:17:37;;;;;;;0.00;0.00;;;19.10;99.90;;;;;;7394759;19;20155;-67
2023/08/18 05:20:07;;;;;;;0.00;0.00;;;19.20;99.90;;;;;;7393349;19;20137;-68
2023/08/18 05:22:36;;;;;;;0.00;0.00;;;19.30;99.90;;;;;;7393147;19;20133;-69
2023/08/18 05:25:05;;;;;;;0.00;0.00;;;19.30;99.90;;;;;;7391531;19;20156;-68
2023/08/18 05:27:33;;;;;;;0.00;0.00;;;19.30;99.90;;;;;;7391815;19;20165;-68
2023/08/18 05:30:05;;;;;;;0.00;0.00;;;19.30;99.90;;;;;;7388999;19;20157;-68
2023/08/18 05:32:34;;;;;;;0.00;0.00;;;19.30;99.90;;;;;;7389680;19;20231;-68
2023/08/18 05:35:04;;;;;;;0.00;0.00;;;19.30;99.90;;;;;;7391463;19;20157;-68
2023/08/18 05:37:33;;;;;;;0.00;0.00;;;19.30;99.90;;;;;;7392982;19;20136;-67
2023/08/18 05:40:02;;;;;;;0.00;0.00;;;19.40;99.90;;;;;;7392730;19;20165;-68
2023/08/18 05:42:31;;;;;;;0.00;0.00;;;19.50;99.90;;;;;;7390946;19;20133;-67
2023/08/18 05:45:00;;;;;;;0.00;0.00;;;19.50;99.90;;;;;;7391565;19;20140;-68
2023/08/18 05:47:31;;;;;;;0.00;0.00;;;19.50;99.90;;;;;;7389950;19;20156;-68
2023/08/18 05:50:00;;;;;;;0.00;0.00;;;19.60;99.90;;;;;;7389802;19;20129;-67
2023/08/18 05:52:28;;;;;;;0.00;0.00;;;19.60;99.90;;;;;;7391941;19;20137;-68
2023/08/18 05:54:57;;;;;;;0.00;0.00;;;19.60;99.90;;;;;;7389679;19;20133;-68
2023/08/18 05:57:26;;;;;;;0.00;0.00;;;19.70;99.90;;;;;;7391405;19;20137;-67
2023/08/18 05:59:55;;;;;;;0.00;0.00;;;19.80;99.90;;;;;;7388710;19;20172;-68
2023/08/18 06:02:23;;;;;;;0.00;0.00;;;20.00;99.90;;;;;;7385638;19;20203;-69
2023/08/18 06:04:54;;;;;;;0.00;0.00;;;20.20;99.90;;;;;;7392036;19;20160;-67
2023/08/18 06:07:23;;;;;;;0.00;0.00;;;20.30;99.90;;;;;;7389660;19;20164;-68
2023/08/18 06:09:52;;;;;;;0.00;0.00;;;20.40;99.90;;;;;;7389994;19;20171;-68
2023/08/18 06:12:21;;;;;;;0.00;0.00;;;20.50;99.90;;;;;;7387919;19;20153;-68
2023/08/18 06:14:50;;;;;;;0.00;0.00;;;20.50;99.90;;;;;;7392143;19;20200;-67
2023/08/18 06:17:18;;;;;;;0.00;0.00;;;20.50;99.90;;;;;;7388306;19;20184;-67
2023/08/18 06:19:47;;;;;;;0.00;0.00;;;20.50;99.90;;;;;;7391471;19;20160;-67
2023/08/18 06:22:18;;;;;;;0.00;0.00;;;20.60;99.90;;;;;;7388060;19;20232;-68
2023/08/18 06:24:47;;;;;;;0.00;0.00;;;20.80;99.90;;;;;;7389773;19;20153;-68
2023/08/18 06:27:16;;;;;;;0.00;0.00;;;20.90;99.90;;;;;;7390959;19;20148;-67
2023/08/18 06:29:45;;;;;;;0.00;0.00;;;21.10;99.90;;;;;;7386629;19;20157;-68
2023/08/18 06:32:14;;;;;;;0.00;0.00;;;21.20;99.90;;;;;;7386489;19;20186;-69
2023/08/18 06:34:42;;;;;;;0.00;0.00;;;21.40;99.90;;;;;;7389036;19;20148;-68
2023/08/18 06:37:11;;;;;;;0.00;0.00;;;21.40;99.90;;;;;;7390466;19;20141;-68
2023/08/18 06:39:42;;;;;;;0.00;0.00;;;21.40;99.90;;;;;;7388353;19;20153;-68
2023/08/18 06:42:11;;;;;;;0.00;0.00;;;21.40;99.90;;;;;;7388516;19;20160;-68
2023/08/18 06:44:40;;;;;;;0.00;0.00;;;21.40;99.90;;;;;;7388519;19;20149;-67
2023/08/18 06:47:08;;;;;;;0.00;0.00;;;21.40;99.90;;;;;;7388715;19;20175;-68
2023/08/18 06:49:37;;;;;;;0.00;0.00;;;21.40;99.90;;;;;;7389161;19;20141;-68
2023/08/18 06:52:06;;;;;;;0.00;0.00;;;21.60;99.90;;;;;;7388332;19;20169;-68
2023/08/18 06:54:35;;;;;;;0.00;0.00;;;21.80;99.90;;;;;;7389038;19;20157;-68
2023/08/18 06:57:06;;;;;;;0.00;0.00;;;22.00;99.90;;;;;;7389333;19;20152;-69
2023/08/18 06:59:35;;;;;;;0.00;0.00;;;22.20;99.90;;;;;;7388535;19;20622;-68
2023/08/18 07:02:03;;;;;;;0.00;0.00;;;22.40;99.90;;;;;;7387703;19;20156;-68
2023/08/18 07:04:32;;;;;;;0.00;0.00;;;22.50;99.90;;;;;;7388708;19;20136;-68
2023/08/18 07:07:01;;;;;;;0.00;0.00;;;22.70;99.90;;;;;;7390142;19;20163;-68
2023/08/18 07:09:30;;;;;;;0.00;0.00;;;22.90;99.90;;;;;;7386702;19;20152;-69
2023/08/18 07:11:58;;;;;;;0.00;0.00;;;23.00;99.90;;;;;;7377341;19;20697;-69
2023/08/18 07:14:30;;;;;;;0.00;0.00;;;23.10;99.90;;;;;;7378043;19;20160;-68
2023/08/18 07:16:59;;;;;;;0.00;0.00;;;23.30;99.90;;;;;;7382454;19;20148;-69
2023/08/18 07:19:27;;;;;;;0.00;0.00;;;23.50;99.90;;;;;;7379320;19;20141;-68
2023/08/18 07:21:57;;;;;;;0.00;0.00;;;23.50;99.90;;;;;;7378170;19;20153;-69
2023/08/18 07:24:25;;;;;;;0.00;0.00;;;23.50;99.90;;;;;;7377596;19;20207;-68
2023/08/18 07:26:54;;;;;;;0.00;0.00;;;23.50;99.90;;;;;;7381366;19;20141;-69
2023/08/18 07:29:23;;;;;;;0.00;0.00;;;23.60;99.90;;;;;;7378185;19;20161;-68
2023/08/18 07:31:55;;;;;;;0.00;0.00;;;23.60;99.90;;;;;;7378165;19;20202;-69
2023/08/18 07:34:23;;;;;;;0.00;0.00;;;23.70;99.90;;;;;;7376262;19;20181;-68
2023/08/18 07:36:52;;;;;;;0.00;0.00;;;23.70;99.90;;;;;;7379167;19;20160;-69
2023/08/18 07:39:22;;;;;;;0.00;0.00;;;23.80;99.90;;;;;;7378648;19;20184;-68
2023/08/18 07:41:50;;;;;;;0.00;0.00;;;23.90;99.90;;;;;;7378728;19;20152;-68
2023/08/18 07:44:19;;;;;;;0.00;0.00;;;24.00;99.90;;;;;;7377773;19;20179;-69
2023/08/18 07:46:48;;;;;;;0.00;0.00;;;24.10;99.90;;;;;;7380270;19;20154;-69
2023/08/18 07:49:19;;;;;;;0.00;0.00;;;24.30;99.90;;;;;;7377435;19;20183;-69
2023/08/18 07:51:48;;;;;;;0.00;0.00;;;24.30;99.90;;;;;;7375924;19;20199;-68
2023/08/18 07:54:17;;;;;;;0.00;0.00;;;24.50;99.90;;;;;;7378074;19;20160;-69
2023/08/18 07:56:46;;;;;;;0.00;0.00;;;24.60;99.90;;;;;;7382662;19;20166;-70
2023/08/18 07:59:14;;;;;;;0.00;0.00;;;24.70;99.90;;;;;;7386711;19;20159;-69
2023/08/18 08:01:43;;;;;;;0.00;0.00;;;24.80;99.90;;;;;;7381533;19;20184;-70
2023/08/18 08:04:12;;;;;;;0.00;0.00;;;24.90;99.90;;;;;;7385383;19;20168;-70
2023/08/18 08:06:43;;;;;;;0.00;0.00;;;25.10;99.90;;;;;;7384832;19;20199;-69
2023/08/18 08:09:12;;;;;;;0.00;0.00;;;;;;;;;;7385835;19;20160;-69
2023/08/18 08:11:41;;;;;;;0.00;0.00;;;25.30;99.90;;;;;;7383426;19;20153;-69
2023/08/18 08:14:09;;;;;;;0.00;0.00;;;25.50;99.90;;;;;;7385162;19;20179;-69
2023/08/18 08:16:38;;;;;;;0.00;0.00;;;25.80;99.90;;;;;;7386337;19;20147;-69
2023/08/18 08:19:09;;;;;;;0.00;0.00;;;;;;;;;;7387275;19;20159;-69
2023/08/18 08:21:38;;;;;;;0.00;0.00;;;;;;;;;;7383756;19;20272;-69
2023/08/18 08:24:10;;;;;;;0.00;0.00;;;;;;;;;;7384819;19;20149;-69
2023/08/18 08:26:39;;;;;;;0.00;0.00;;;;;;;;;;7384221;19;20153;-69
2023/08/18 08:29:08;;;;;;;0.00;0.00;;;;;;;;;;7384810;19;20240;-70
2023/08/18 08:31:37;;;;;;;0.00;0.00;;;;;;;;;;7381112;19;20203;-69
2023/08/18 08:34:06;;;;;;;0.00;0.00;;;;;;;;;;7384833;19;20148;-69
2023/08/18 08:36:35;;;;;;;0.00;0.00;;;;;;;;;;7382138;19;20153;-69
2023/08/18 08:39:05;;;;;;;0.00;0.00;;;;;;;;;;7384516;19;20179;-69
2023/08/18 08:41:37;;;;;;;0.00;0.00;;;;;;;;;;7382078;19;20173;-69
2023/08/18 08:44:06;;;;;;;0.00;0.00;;;;;;;;;;7384391;19;20155;-70
2023/08/18 08:46:35;;;;;;;0.00;0.00;;;;;;;;;;7384466;19;20148;-70
2023/08/18 08:49:06;;;;;;;0.00;0.00;;;;;;;;;;7385867;19;20164;-69
2023/08/18 08:51:40;;;;;;;0.00;0.00;;;;;;;;;;7380282;19;20180;-69
2023/08/18 08:54:11;;;;;;;0.00;0.00;;;;;;;;;;7384886;19;20213;-69
2023/08/18 08:56:43;;;;;;;0.00;0.00;;;;;;;;;;7383035;19;20474;-69
2023/08/18 08:59:13;;;;;;;0.00;0.00;;;;;;;;;;7385524;19;20145;-68
2023/08/18 09:01:42;;;;;;;0.00;0.00;;;;;;;;;;7381467;19;20153;-69
2023/08/18 09:04:11;;;;;;;0.00;0.00;;;;;;;;;;7386252;19;20141;-70
2023/08/18 09:06:40;;;;;;;0.00;0.00;;;;;;;;;;7387196;19;20167;-68
2023/08/18 09:09:09;;;;;;;0.00;0.00;;;;;;;;;;7388720;19;20163;-69
2023/08/18 09:11:46;;;;;;;0.00;0.00;;;;;;;;;;7378644;19;20184;-69
2023/08/18 09:14:15;;;;;;;0.00;0.00;;;;;;;;;;7383322;19;20152;-68
2023/08/18 09:16:45;;;;;;;0.00;0.00;;;;;;;;;;7383902;19;20220;-69
2023/08/18 09:19:14;;;;;;;0.00;0.00;;;;;;;;;;7383215;19;20174;-68
2023/08/18 09:21:43;;;;;;;0.00;0.00;;;;;;;;;;7382021;19;20144;-69
2023/08/18 09:24:13;;;;;;;0.00;0.00;;;;;;;;;;7384955;19;20189;-69
2023/08/18 09:26:44;;;;;;;0.00;0.00;;;;;;;;;;7384094;19;20143;-68
2023/08/18 09:29:13;;;;;;;0.00;0.00;;;;;;;;;;7383815;19;20145;-69
2023/08/18 09:31:42;;;;;;;0.00;0.00;;;28.00;99.90;;;;;;7379236;19;20263;-68
2023/08/18 09:34:11;;;;;;;0.00;0.00;;;28.20;99.90;;;;;;7382223;19;20193;-68
2023/08/18 09:36:40;;;;;;;0.00;0.00;;;;;;;;;;7380205;19;20153;-69
2023/08/18 09:39:09;;;;;;;0.00;0.00;;;;;;;;;;7382262;19;20197;-69
2023/08/18 09:41:38;;;;;;;0.00;0.00;;;;;;;;;;7378155;19;20208;-69
2023/08/18 09:44:09;;;;;;;0.00;0.00;;;;;;;;;;7383145;19;20161;-69
2023/08/18 09:46:42;;;;;;;0.00;0.00;;;28.20;99.90;;;;;;7370163;19;20158;-68
2023/08/18 09:49:12;;;;;;;0.00;0.00;;;;;;;;;;7381468;19;20145;-69
2023/08/18 09:51:41;;;;;;;0.00;0.00;;;;;;;;;;7377012;19;20184;-69
2023/08/18 09:54:12;;;;;;;0.00;0.00;;;;;;;;;;7381840;19;20179;-69
2023/08/18 09:56:42;;;;;;;0.00;0.00;;;;;;;;;;7370728;19;20193;-69
2023/08/18 09:59:17;;;;;;;0.00;0.00;;;;;;;;;;7381857;19;20160;-69
2023/08/18 10:01:48;;;;;;;0.00;0.00;;;28.30;99.90;;;;;;7370495;19;20179;-68
2023/08/18 10:04:19;;;;;;;0.00;0.00;;;28.40;99.90;;;;;;7373197;19;20153;-68
2023/08/18 10:06:47;;;;;;;0.00;0.00;;;28.20;99.90;;;;;;7380244;19;20160;-69
2023/08/18 10:09:16;;;;;;;0.00;0.00;;;28.20;99.90;;;;;;7380908;19;20157;-69
2023/08/18 10:11:46;;;;;;;0.00;0.00;;;28.10;99.90;;;;;;7368051;19;20199;-68
2023/08/18 10:14:17;;;;;;;0.00;0.00;;;28.30;99.90;;;;;;7381077;19;20177;-68
2023/08/18 10:16:48;;;;;;;0.00;0.00;;;;;;;;;;7371585;19;20253;-69
2023/08/18 10:19:17;;;;;;;0.00;0.00;;;;;;;;;;7379536;19;20137;-69
2023/08/18 10:21:46;;;;;;;0.00;0.00;;;;;;;;;;7370561;19;20195;-69
2023/08/18 10:24:15;;;;;;;0.00;0.00;;;;;;;;;;7379470;19;20160;-69
2023/08/18 10:26:45;;;;;;;0.00;0.00;;;;;;;;;;7367035;19;20623;-69
2023/08/18 10:29:21;;;;;;;0.00;0.00;;;;;;;;;;7382345;19;20144;-70
2023/08/18 10:31:51;;;;;;;0.00;0.00;;;;;;;;;;7377914;19;20160;-69
2023/08/18 10:34:24;;;;;;;0.00;0.00;;;;;;;;;;7379355;19;20156;-69
2023/08/18 10:37:01;;;;;;;0.00;0.00;;;;;;;;;;7381469;19;20133;-69
2023/08/18 10:39:36;;;;;;;0.00;0.00;;;;;;;;;;7379245;19;20163;-69
2023/08/18 10:42:10;;;;;;;0.00;0.00;;;;;;;;;;7378947;19;20156;-69
2023/08/18 10:44:58;;;;;;;0.00;0.00;;;;;;;;;;7380037;19;20466;-69
2023/08/18 10:47:34;;;;;;;0.00;0.00;;;;;;;;;;7370165;19;20160;-68
2023/08/18 10:50:04;;;;;;;0.00;0.00;;;;;;;;;;7373630;19;20136;-69
2023/08/18 10:52:33;;;;;;;0.00;0.00;;;;;;;;;;7376507;19;20634;-69
2023/08/18 10:55:03;;;;;;;0.00;0.00;;;;;;;;;;7373237;19;20140;-69
2023/08/18 10:57:33;;;;;;;0.00;0.00;;;;;;;;;;7379414;19;20140;-70
2023/08/18 11:00:10;;;;;;;0.00;0.00;;;;;;;;;;7381511;19;20137;-69
2023/08/18 11:02:39;;;;;;;0.00;0.00;;;;;;;;;;7377532;19;20152;-69
2023/08/18 11:05:09;;;;;;;0.00;0.00;;;;;;;;;;7381066;19;20152;-69
2023/08/18 11:07:39;;;;;;;0.00;0.00;;;;;;;;;;7375253;19;20155;-69
2023/08/18 11:10:17;;;;;;;0.00;0.00;;;;;;;;;;7380188;19;20169;-69
2023/08/18 11:12:46;;;;;;;0.00;0.00;;;;;;;;;;7379035;19;20154;-69
2023/08/18 11:15:18;;;;;;;0.00;0.00;;;;;;;;;;7378603;19;20160;-70
2023/08/18 11:17:47;;;;;;;0.00;0.00;;;;;;;;;;7377701;19;20140;-69
2023/08/18 11:20:20;;;;;;;0.00;0.00;;;;;;;;;;7378897;19;20133;-68
2023/08/18 11:22:51;;;;;;;0.00;0.00;;;;;;;;;;7384376;19;20153;-68
2023/08/18 11:25:21;;;;;;;0.00;0.00;;;;;;;;;;7378418;19;20167;-69
2023/08/18 11:27:52;;;;;;;0.00;0.00;;;;;;;;;;7373671;19;20763;-68
2023/08/18 11:30:24;;;;;;;0.00;0.00;;;;;;;;;;7376587;19;20164;-68
2023/08/18 11:32:54;;;;;;;0.00;0.00;;;;;;;;;;7377901;19;20141;-68
2023/08/18 11:35:24;;;;;;;0.00;0.00;;;;;;;;;;7370183;19;20164;-67
2023/08/18 11:37:54;;;;;;;0.00;0.00;;;;;;;;;;7378058;19;20153;-68
2023/08/18 11:40:24;;;;;;;0.00;0.00;;;;;;;;;;7370811;19;20156;-67
2023/08/18 11:42:55;;;;;;;0.00;0.00;;;;;;;;;;7369590;19;20140;-68
2023/08/18 11:45:27;;;;;;;0.00;0.00;;;;;;;;;;7372212;19;20144;-68
2023/08/18 11:48:00;;;;;;;0.00;0.00;;;;;;;;;;7379734;19;20141;-68
2023/08/18 11:50:33;;;;;;;0.00;0.00;;;;;;;;;;7377947;19;20175;-68
2023/08/18 11:53:02;;;;;;;0.00;0.00;;;;;;;;;;7379690;19;20152;-68
2023/08/18 11:55:35;;;;;;;0.00;0.00;;;;;;;;;;7379505;19;20163;-68
2023/08/18 11:58:10;;;;;;;0.00;0.00;;;;;;;;;;7378213;19;20152;-68
2023/08/18 12:00:43;;;;;;;0.00;0.00;;;;;;;;;;7374707;19;20175;-69
2023/08/18 12:03:22;;;;;;;0.00;0.00;;;;;;;;;;7378265;19;20164;-69
2023/08/18 12:05:51;;;;;;;0.00;0.00;;;;;;;;;;7380107;19;20140;-69
2023/08/18 12:08:20;;;;;;;0.00;0.00;;;;;;;;;;7377599;19;20156;-69
2023/08/18 12:10:52;;;;;;;0.00;0.00;;;;;;;;;;7375713;19;20159;-68
2023/08/18 12:13:21;;;;;;;0.00;0.00;;;;;;;;;;7369050;19;20133;-68
2023/08/18 12:15:52;;;;;;;0.00;0.00;;;;;;;;;;7376459;19;20259;-68
2023/08/18 12:18:21;;;;;;;0.00;0.00;;;;;;;;;;7379916;19;20164;-69
2023/08/18 12:20:50;;;;;;;0.00;0.00;;;;;;;;;;7376914;19;20156;-67
2023/08/18 12:23:19;;;;;;;0.00;0.00;;;;;;;;;;7378301;19;20133;-69
2023/08/18 12:25:48;;;;;;;0.00;0.00;;;;;;;;;;7377573;19;20137;-68
2023/08/18 12:28:17;;;;;;;0.00;0.00;;;;;;;;;;7367317;19;20160;-67
2023/08/18 12:30:47;;;;;;;0.00;0.00;;;;;;;;;;7372416;19;20182;-67
2023/08/18 12:33:19;;;;;;;0.00;0.00;;;;;;;;;;7377619;19;20129;-68
2023/08/18 12:35:48;;;;;;;0.00;0.00;;;;;;;;;;7376865;19;20157;-68
2023/08/18 12:38:17;;;;;;;0.00;0.00;;;;;;;;;;7374512;19;20183;-69
2023/08/18 12:40:46;;;;;;;0.00;0.00;;;;;;;;;;7374358;19;20184;-68
2023/08/18 12:43:15;;;;;;;0.00;0.00;;;;;;;;;;7384020;19;20184;-69
2023/08/18 12:45:44;;;;;;;0.00;0.00;;;;;;;;;;7380512;19;20192;-68
2023/08/18 12:48:13;;;;;;;0.00;0.00;;;;;;;;;;7386260;19;20137;-68
2023/08/18 12:50:45;;;;;;;0.00;0.00;;;;;;;;;;7383129;19;20171;-68
2023/08/18 12:53:14;;;;;;;0.00;0.00;;;;;;;;;;7384832;19;20145;-69
2023/08/18 12:55:43;;;;;;;0.00;0.00;;;;;;;;;;7384243;19;20171;-69
2023/08/18 12:58:12;;;;;;;0.00;0.00;;;;;;;;;;7384084;19;20761;-69
2023/08/18 13:00:41;;;;;;;0.00;0.00;;;;;;;;;;7382742;19;20448;-68
2023/08/18 13:03:10;;;;;;;0.00;0.00;;;;;;;;;;7385327;19;20160;-68
2023/08/18 13:05:39;;;;;;;0.00;0.00;;;;;;;;;;7383647;19;20152;-69
2023/08/18 13:08:11;;;;;;;0.00;0.00;;;;;;;;;;7384655;19;20168;-68
2023/08/18 13:10:40;;;;;;;0.00;0.00;;;;;;;;;;7380948;19;20231;-68
2023/08/18 13:13:09;;;;;;;0.00;0.00;;;;;;;;;;7384369;19;20153;-69
2023/08/18 13:15:38;;;;;;;0.00;0.00;;;;;;;;;;7383942;19;20157;-69
2023/08/18 13:18:07;;;;;;;0.00;0.00;;;;;;;;;;7383448;19;20153;-69
2023/08/18 13:20:36;;;;;;;0.00;0.00;;;;;;;;;;7382507;19;20180;-69
2023/08/18 13:23:07;;;;;;;0.00;0.00;;;;;;;;;;7382828;19;20153;-69
2023/08/18 13:25:38;;;;;;;0.00;0.00;;;;;;;;;;7383457;19;20171;-69
2023/08/18 13:28:08;;;;;;;0.00;0.00;;;;;;;;;;7384581;19;20491;-69
2023/08/18 13:30:37;;;;;;;0.00;0.00;;;;;;;;;;7381440;19;20191;-69
2023/08/18 13:33:06;;;;;;;0.00;0.00;;;;;;;;;;7383444;19;20145;-68
2023/08/18 13:35:35;;;;;;;0.00;0.00;;;;;;;;;;7383996;19;20144;-68
2023/08/18 13:38:04;;;;;;;0.00;0.00;;;;;;;;;;7381344;19;20149;-68
2023/08/18 13:40:33;;;;;;;0.00;0.00;;;;;;;;;;7382905;19;20168;-68
2023/08/18 13:43:04;;;;;;;0.00;0.00;;;;;;;;;;7380377;19;20160;-69
2023/08/18 13:45:33;;;;;;;0.00;0.00;;;;;;;;;;7382625;19;20167;-68
2023/08/18 13:48:02;;;;;;;0.00;0.00;;;;;;;;;;7381761;19;20157;-68
2023/08/18 13:50:31;;;;;;;0.00;0.00;;;;;;;;;;7380192;19;20215;-69
2023/08/18 13:53:02;;;;;;;0.00;0.00;;;;;;;;;;7374165;19;20144;-69
2023/08/18 13:55:32;;;;;;;0.00;0.00;;;;;;;;;;7380459;19;20211;-69
2023/08/18 13:58:01;;;;;;;0.00;0.00;;;;;;;;;;7380692;19;20175;-67
2023/08/18 14:00:34;;;;;;;0.00;0.00;;;;;;;;;;7382725;19;20153;-67
2023/08/18 14:03:02;;;;;;;0.00;0.00;;;;;;;;;;7382502;19;20137;-68
2023/08/18 14:05:31;;;;;;;0.00;0.00;;;;;;;;;;7381318;19;20175;-68
2023/08/18 14:08:01;;;;;;;0.00;0.00;;;;;;;;;;7381730;19;20157;-69
2023/08/18 14:10:30;;;;;;;0.00;0.00;;;;;;;;;;7380521;19;20176;-68
2023/08/18 14:12:59;;;;;;;0.00;0.00;;;;;;;;;;7378540;19;20157;-69